sensor_id;sensor_type;location;lat;lon;timestamp;pressure;altitude;pressure_sealevel;temperature;humidity
66880;BME280;53789;51.392;10.234;2022-07-21T00:00:15;98420.88;;;22.68;50.77
66880;BME280;53789;51.392;10.234;2022-07-21T00:00:35;98421.28;;;22.66;50.53
66880;BME280;53789;51.392;10.234;2022-07-21T00:00:55;98418.84;;;22.65;50.74
66880;BME280;53789;51.392;10.234;2022-07-21T00:01:16;98416.84;;;22.65;50.66
66880;BME280;53789;51.392;10.234;2022-07-21T00:01:36;98414.88;;;22.66;50.95
66880;BME280;53789;51.392;10.234;2022-07-21T00:01:56;98408.06;;;22.67;50.27
66880;BME280;53789;51.392;10.234;2022-07-21T00:02:17;98419.66;;;22.65;50.63
66880;BME280;53789;51.392;10.234;2022-07-21T00:02:37;98413.25;;;22.65;50.61
66880;BME280;53789;51.392;10.234;2022-07-21T00:02:58;98409.66;;;22.64;50.73
66880;BME280;53789;51.392;10.234;2022-07-21T00:03:18;98410.44;;;22.65;50.52
66880;BME280;53789;51.392;10.234;2022-07-21T00:03:39;98413.63;;;22.63;50.45
66880;BME280;53789;51.392;10.234;2022-07-21T00:03:59;98408.41;;;22.62;50.39
66880;BME280;53789;51.392;10.234;2022-07-21T00:04:20;98408.41;;;22.62;50.58
66880;BME280;53789;51.392;10.234;2022-07-21T00:04:41;98408.41;;;22.62;50.50
66880;BME280;53789;51.392;10.234;2022-07-21T00:05:01;98416.81;;;22.62;50.54
66880;BME280;53789;51.392;10.234;2022-07-21T00:05:23;98408.81;;;22.60;50.98
66880;BME280;53789;51.392;10.234;2022-07-21T00:05:44;98408.81;;;22.60;50.63
66880;BME280;53789;51.392;10.234;2022-07-21T00:06:05;98416.81;;;22.62;50.63
66880;BME280;53789;51.392;10.234;2022-07-21T00:06:25;98409.59;;;22.61;51.01
66880;BME280;53789;51.392;10.234;2022-07-21T00:06:47;98410.81;;;22.60;50.85
66880;BME280;53789;51.392;10.234;2022-07-21T00:07:07;98405.56;;;22.58;50.75
66880;BME280;53789;51.392;10.234;2022-07-21T00:07:28;98408.81;;;22.60;50.89
66880;BME280;53789;51.392;10.234;2022-07-21T00:07:49;98398.38;;;22.61;50.44
66880;BME280;53789;51.392;10.234;2022-07-21T00:08:09;98394.41;;;22.62;50.91
66880;BME280;53789;51.392;10.234;2022-07-21T00:08:30;98400.81;;;22.62;50.50
66880;BME280;53789;51.392;10.234;2022-07-21T00:08:52;98400.81;;;22.62;50.99
66880;BME280;53789;51.392;10.234;2022-07-21T00:09:14;98395.19;;;22.62;50.49
66880;BME280;53789;51.392;10.234;2022-07-21T00:09:34;98390.41;;;22.63;50.91
66880;BME280;53789;51.392;10.234;2022-07-21T00:09:54;98396.81;;;22.63;51.12
66880;BME280;53789;51.392;10.234;2022-07-21T00:10:17;98382.81;;;22.63;50.52
66880;BME280;53789;51.392;10.234;2022-07-21T00:10:38;98388.41;;;22.63;50.73
66880;BME280;53789;51.392;10.234;2022-07-21T00:10:59;98392.00;;;22.64;50.35
66880;BME280;53789;51.392;10.234;2022-07-21T00:11:20;98388.41;;;22.63;50.54
66880;BME280;53789;51.392;10.234;2022-07-21T00:11:41;98400.03;;;22.65;50.63
66880;BME280;53789;51.392;10.234;2022-07-21T00:12:05;98394.00;;;22.63;50.54
66880;BME280;53789;51.392;10.234;2022-07-21T00:12:25;98397.63;;;22.64;50.95
66880;BME280;53789;51.392;10.234;2022-07-21T00:12:46;98394.00;;;22.63;50.99
66880;BME280;53789;51.392;10.234;2022-07-21T00:13:06;98397.63;;;22.64;50.69
66880;BME280;53789;51.392;10.234;2022-07-21T00:13:26;98396.81;;;22.63;50.46
66880;BME280;53789;51.392;10.234;2022-07-21T00:13:47;98403.59;;;22.62;50.86
66880;BME280;53789;51.392;10.234;2022-07-21T00:14:09;98389.59;;;22.62;50.80
66880;BME280;53789;51.392;10.234;2022-07-21T00:14:30;98393.16;;;22.59;50.69
66880;BME280;53789;51.392;10.234;2022-07-21T00:14:50;98397.16;;;22.58;50.77
66880;BME280;53789;51.392;10.234;2022-07-21T00:15:13;98393.53;;;22.54;50.70
66880;BME280;53789;51.392;10.234;2022-07-21T00:15:33;98397.50;;;22.53;51.02
66880;BME280;53789;51.392;10.234;2022-07-21T00:15:54;98397.50;;;22.53;51.13
66880;BME280;53789;51.392;10.234;2022-07-21T00:16:15;98396.72;;;22.53;50.67
66880;BME280;53789;51.392;10.234;2022-07-21T00:16:36;98396.25;;;22.50;50.72
66880;BME280;53789;51.392;10.234;2022-07-21T00:16:57;98391.03;;;22.49;51.14
66880;BME280;53789;51.392;10.234;2022-07-21T00:17:17;98387.84;;;22.50;50.86
66880;BME280;53789;51.392;10.234;2022-07-21T00:17:38;98395.47;;;22.50;50.80
66880;BME280;53789;51.392;10.234;2022-07-21T00:17:59;98389.88;;;22.50;50.86
66880;BME280;53789;51.392;10.234;2022-07-21T00:18:21;98391.88;;;22.49;50.78
66880;BME280;53789;51.392;10.234;2022-07-21T00:18:41;98389.44;;;22.48;50.92
66880;BME280;53789;51.392;10.234;2022-07-21T00:19:02;98389.44;;;22.48;51.02
66880;BME280;53789;51.392;10.234;2022-07-21T00:19:22;98392.25;;;22.48;50.85
66880;BME280;53789;51.392;10.234;2022-07-21T00:19:43;98389.44;;;22.48;50.76
66880;BME280;53789;51.392;10.234;2022-07-21T00:20:05;98386.66;;;22.48;50.80
66880;BME280;53789;51.392;10.234;2022-07-21T00:20:26;98386.66;;;22.48;50.74
66880;BME280;53789;51.392;10.234;2022-07-21T00:20:47;98387.84;;;22.47;50.83
66880;BME280;53789;51.392;10.234;2022-07-21T00:21:07;98387.84;;;22.47;51.25
66880;BME280;53789;51.392;10.234;2022-07-21T00:21:28;98380.59;;;22.46;50.98
66880;BME280;53789;51.392;10.234;2022-07-21T00:21:48;98384.59;;;22.45;51.32
66880;BME280;53789;51.392;10.234;2022-07-21T00:22:08;98387.38;;;22.45;51.50
66880;BME280;53789;51.392;10.234;2022-07-21T00:22:29;98387.00;;;22.46;51.39
66880;BME280;53789;51.392;10.234;2022-07-21T00:22:49;98386.22;;;22.46;50.95
66880;BME280;53789;51.392;10.234;2022-07-21T00:23:10;98377.41;;;22.47;50.93
66880;BME280;53789;51.392;10.234;2022-07-21T00:23:30;98382.22;;;22.47;50.74
66880;BME280;53789;51.392;10.234;2022-07-21T00:23:50;98370.19;;;22.46;50.81
66880;BME280;53789;51.392;10.234;2022-07-21T00:24:11;98371.81;;;22.47;51.37
66880;BME280;53789;51.392;10.234;2022-07-21T00:24:31;98369.41;;;22.46;51.26
66880;BME280;53789;51.392;10.234;2022-07-21T00:24:51;98371.41;;;22.45;50.97
66880;BME280;53789;51.392;10.234;2022-07-21T00:25:14;98373.38;;;22.45;51.10
66880;BME280;53789;51.392;10.234;2022-07-21T00:25:34;98368.97;;;22.44;51.32
66880;BME280;53789;51.392;10.234;2022-07-21T00:25:55;98368.97;;;22.44;51.27
66880;BME280;53789;51.392;10.234;2022-07-21T00:26:15;98365.34;;;22.43;51.37
66880;BME280;53789;51.392;10.234;2022-07-21T00:26:35;98358.56;;;22.44;50.98
66880;BME280;53789;51.392;10.234;2022-07-21T00:26:56;98367.78;;;22.45;51.44
66880;BME280;53789;51.392;10.234;2022-07-21T00:27:16;98368.59;;;22.45;50.99
66880;BME280;53789;51.392;10.234;2022-07-21T00:27:37;98359.38;;;22.45;51.31
66880;BME280;53789;51.392;10.234;2022-07-21T00:27:57;98360.19;;;22.45;51.28
66880;BME280;53789;51.392;10.234;2022-07-21T00:28:18;98358.56;;;22.44;51.22
66880;BME280;53789;51.392;10.234;2022-07-21T00:28:39;98366.97;;;22.44;51.26
66880;BME280;53789;51.392;10.234;2022-07-21T00:28:59;98368.16;;;22.43;50.99
66880;BME280;53789;51.392;10.234;2022-07-21T00:29:20;98364.19;;;22.44;50.95
66880;BME280;53789;51.392;10.234;2022-07-21T00:29:40;98366.19;;;22.44;50.94
66880;BME280;53789;51.392;10.234;2022-07-21T00:30:01;98373.38;;;22.45;50.99
66880;BME280;53789;51.392;10.234;2022-07-21T00:30:22;98371.78;;;22.44;51.28
66880;BME280;53789;51.392;10.234;2022-07-21T00:30:44;98373.38;;;22.45;51.22
66880;BME280;53789;51.392;10.234;2022-07-21T00:31:04;98377.38;;;22.44;51.24
66880;BME280;53789;51.392;10.234;2022-07-21T00:31:25;98359.75;;;22.43;50.93
66880;BME280;53789;51.392;10.234;2022-07-21T00:31:45;98370.97;;;22.43;51.05
66880;BME280;53789;51.392;10.234;2022-07-21T00:32:06;98372.59;;;22.44;51.36
66880;BME280;53789;51.392;10.234;2022-07-21T00:32:26;98366.19;;;22.44;51.31
66880;BME280;53789;51.392;10.234;2022-07-21T00:32:46;98370.16;;;22.43;51.07
66880;BME280;53789;51.392;10.234;2022-07-21T00:33:07;98372.97;;;22.43;51.06
66880;BME280;53789;51.392;10.234;2022-07-21T00:33:27;98366.97;;;22.44;51.72
66880;BME280;53789;51.392;10.234;2022-07-21T00:33:47;98368.16;;;22.43;51.01
66880;BME280;53789;51.392;10.234;2022-07-21T00:34:08;98365.34;;;22.43;51.45
66880;BME280;53789;51.392;10.234;2022-07-21T00:34:28;98366.56;;;22.42;51.35
66880;BME280;53789;51.392;10.234;2022-07-21T00:34:48;98357.78;;;22.44;51.33
66880;BME280;53789;51.392;10.234;2022-07-21T00:35:09;98361.38;;;22.44;51.39
66880;BME280;53789;51.392;10.234;2022-07-21T00:35:30;98367.78;;;22.45;51.34
66880;BME280;53789;51.392;10.234;2022-07-21T00:35:51;98367.78;;;22.45;51.50
66880;BME280;53789;51.392;10.234;2022-07-21T00:36:11;98357.41;;;22.45;51.51
66880;BME280;53789;51.392;10.234;2022-07-21T00:36:31;98362.16;;;22.45;50.83
66880;BME280;53789;51.392;10.234;2022-07-21T00:36:52;98358.56;;;22.44;51.27
66880;BME280;53789;51.392;10.234;2022-07-21T00:37:12;98360.56;;;22.44;51.48
66880;BME280;53789;51.392;10.234;2022-07-21T00:37:32;98355.78;;;22.44;51.11
66880;BME280;53789;51.392;10.234;2022-07-21T00:37:53;98357.78;;;22.44;51.56
66880;BME280;53789;51.392;10.234;2022-07-21T00:38:13;98351.78;;;22.45;51.01
66880;BME280;53789;51.392;10.234;2022-07-21T00:38:33;98357.41;;;22.45;51.49
66880;BME280;53789;51.392;10.234;2022-07-21T00:38:54;98347.38;;;22.44;51.27
66880;BME280;53789;51.392;10.234;2022-07-21T00:39:14;98345.34;;;22.45;51.27
66880;BME280;53789;51.392;10.234;2022-07-21T00:39:35;98347.78;;;22.46;51.48
66880;BME280;53789;51.392;10.234;2022-07-21T00:39:55;98350.22;;;22.48;50.92
66880;BME280;53789;51.392;10.234;2022-07-21T00:40:16;98347.84;;;22.50;51.14
66880;BME280;53789;51.392;10.234;2022-07-21T00:40:36;98347.84;;;22.50;51.02
66880;BME280;53789;51.392;10.234;2022-07-21T00:40:56;98352.25;;;22.51;51.00
66880;BME280;53789;51.392;10.234;2022-07-21T00:41:17;98354.66;;;22.53;51.14
66880;BME280;53789;51.392;10.234;2022-07-21T00:41:37;98357.47;;;22.53;50.89
66880;BME280;53789;51.392;10.234;2022-07-21T00:42:29;98352.66;;;22.53;51.07
66880;BME280;53789;51.392;10.234;2022-07-21T00:42:49;98358.28;;;22.53;51.01
66880;BME280;53789;51.392;10.234;2022-07-21T00:43:10;98366.69;;;22.53;50.96
66880;BME280;53789;51.392;10.234;2022-07-21T00:43:30;98355.47;;;22.53;51.07
66880;BME280;53789;51.392;10.234;2022-07-21T00:43:51;98353.84;;;22.52;51.47
66880;BME280;53789;51.392;10.234;2022-07-21T00:44:25;98357.84;;;22.51;51.42
66880;BME280;53789;51.392;10.234;2022-07-21T00:44:46;98359.84;;;22.50;51.39
66880;BME280;53789;51.392;10.234;2022-07-21T00:45:07;98364.25;;;22.52;51.51
66880;BME280;53789;51.392;10.234;2022-07-21T00:45:28;98360.66;;;22.51;51.56
66880;BME280;53789;51.392;10.234;2022-07-21T00:45:48;98365.88;;;22.53;51.86
66880;BME280;53789;51.392;10.234;2022-07-21T00:46:11;98357.03;;;22.50;51.87
66880;BME280;53789;51.392;10.234;2022-07-21T00:46:32;98358.25;;;22.49;52.15
66880;BME280;53789;51.392;10.234;2022-07-21T00:46:53;98348.22;;;22.48;52.41
66880;BME280;53789;51.392;10.234;2022-07-21T00:47:14;98363.03;;;22.49;51.76
66880;BME280;53789;51.392;10.234;2022-07-21T00:47:34;98364.66;;;22.50;51.85
66880;BME280;53789;51.392;10.234;2022-07-21T00:47:55;98363.03;;;22.49;52.74
66880;BME280;53789;51.392;10.234;2022-07-21T00:48:15;98354.63;;;22.49;52.56
66880;BME280;53789;51.392;10.234;2022-07-21T00:48:35;98359.44;;;22.48;52.86
66880;BME280;53789;51.392;10.234;2022-07-21T00:48:56;98365.03;;;22.48;52.31
66880;BME280;53789;51.392;10.234;2022-07-21T00:49:17;98357.81;;;22.47;53.19
66880;BME280;53789;51.392;10.234;2022-07-21T00:49:37;98358.97;;;22.46;52.99
66880;BME280;53789;51.392;10.234;2022-07-21T00:50:00;98358.63;;;22.48;52.66
66880;BME280;53789;51.392;10.234;2022-07-21T00:50:21;98357.00;;;22.47;52.70
66880;BME280;53789;51.392;10.234;2022-07-21T00:50:42;98358.19;;;22.46;53.33
66880;BME280;53789;51.392;10.234;2022-07-21T00:51:02;98369.00;;;22.47;53.24
66880;BME280;53789;51.392;10.234;2022-07-21T00:51:22;98371.81;;;22.47;52.99
66880;BME280;53789;51.392;10.234;2022-07-21T00:51:43;98367.38;;;22.46;52.88
66880;BME280;53789;51.392;10.234;2022-07-21T00:52:04;98361.78;;;22.46;53.38
66880;BME280;53789;51.392;10.234;2022-07-21T00:52:24;98371.03;;;22.47;53.77
66880;BME280;53789;51.392;10.234;2022-07-21T00:52:47;98369.41;;;22.46;54.05
66880;BME280;53789;51.392;10.234;2022-07-21T00:53:07;98365.41;;;22.47;53.58
66880;BME280;53789;51.392;10.234;2022-07-21T00:53:28;98366.59;;;22.46;53.88
66880;BME280;53789;51.392;10.234;2022-07-21T00:53:48;98370.56;;;22.45;54.15
66880;BME280;53789;51.392;10.234;2022-07-21T00:54:09;98368.16;;;22.43;53.51
66880;BME280;53789;51.392;10.234;2022-07-21T00:54:30;98360.13;;;22.42;53.86
66880;BME280;53789;51.392;10.234;2022-07-21T00:54:51;98362.91;;;22.38;53.97
66880;BME280;53789;51.392;10.234;2022-07-21T00:55:16;98365.31;;;22.36;54.19
66880;BME280;53789;51.392;10.234;2022-07-21T00:55:37;98362.06;;;22.34;54.00
66880;BME280;53789;51.392;10.234;2022-07-21T00:55:59;98357.22;;;22.31;54.24
66880;BME280;53789;51.392;10.234;2022-07-21T00:56:21;98354.78;;;22.26;54.38
66880;BME280;53789;51.392;10.234;2022-07-21T00:56:42;98349.56;;;22.24;54.61
66880;BME280;53789;51.392;10.234;2022-07-21T00:57:03;98339.09;;;22.21;54.39
66880;BME280;53789;51.392;10.234;2022-07-21T00:57:24;98337.88;;;22.19;54.38
66880;BME280;53789;51.392;10.234;2022-07-21T00:57:45;98337.44;;;22.17;55.06
66880;BME280;53789;51.392;10.234;2022-07-21T00:58:06;98333.06;;;22.15;54.49
66880;BME280;53789;51.392;10.234;2022-07-21T00:58:26;98330.63;;;22.14;54.77
66880;BME280;53789;51.392;10.234;2022-07-21T00:58:46;98335.78;;;22.12;55.05
66880;BME280;53789;51.392;10.234;2022-07-21T00:59:07;98338.59;;;22.12;55.18
66880;BME280;53789;51.392;10.234;2022-07-21T00:59:29;98332.56;;;22.10;55.77
66880;BME280;53789;51.392;10.234;2022-07-21T00:59:49;98339.31;;;22.09;55.60
66880;BME280;53789;51.392;10.234;2022-07-21T01:00:14;98338.53;;;22.08;55.54
66880;BME280;53789;51.392;10.234;2022-07-21T01:00:36;98337.69;;;22.08;55.59
66880;BME280;53789;51.392;10.234;2022-07-21T01:00:56;98336.09;;;22.07;55.94
66880;BME280;53789;51.392;10.234;2022-07-21T01:01:17;98341.72;;;22.07;55.81
66880;BME280;53789;51.392;10.234;2022-07-21T01:01:37;98340.88;;;22.06;56.40
66880;BME280;53789;51.392;10.234;2022-07-21T01:01:57;98342.88;;;22.06;55.62
66880;BME280;53789;51.392;10.234;2022-07-21T01:02:18;98347.69;;;22.05;55.58
66880;BME280;53789;51.392;10.234;2022-07-21T01:02:39;98345.69;;;22.06;56.04
66880;BME280;53789;51.392;10.234;2022-07-21T01:02:59;98349.66;;;22.05;56.06
66880;BME280;53789;51.392;10.234;2022-07-21T01:03:19;98350.50;;;22.05;56.29
66880;BME280;53789;51.392;10.234;2022-07-21T01:03:40;98353.28;;;22.05;56.88
66880;BME280;53789;51.392;10.234;2022-07-21T01:04:00;98362.50;;;22.06;56.47
66880;BME280;53789;51.392;10.234;2022-07-21T01:04:20;98357.28;;;22.04;56.90
66880;BME280;53789;51.392;10.234;2022-07-21T01:04:41;98365.25;;;22.02;56.42
66880;BME280;53789;51.392;10.234;2022-07-21T01:05:03;98356.78;;;21.98;56.66
66880;BME280;53789;51.392;10.234;2022-07-21T01:05:24;98354.38;;;21.97;56.71
66880;BME280;53789;51.392;10.234;2022-07-21T01:05:45;98355.19;;;21.97;56.83
66880;BME280;53789;51.392;10.234;2022-07-21T01:06:06;98357.94;;;21.94;56.36
66880;BME280;53789;51.392;10.234;2022-07-21T01:06:26;98351.09;;;21.91;56.44
66880;BME280;53789;51.392;10.234;2022-07-21T01:06:47;98352.31;;;21.90;56.84
66880;BME280;53789;51.392;10.234;2022-07-21T01:07:08;98351.88;;;21.88;56.79
66880;BME280;53789;51.392;10.234;2022-07-21T01:07:28;98345.84;;;21.86;56.83
66880;BME280;53789;51.392;10.234;2022-07-21T01:07:53;98347.03;;;21.85;57.43
66880;BME280;53789;51.392;10.234;2022-07-21T01:08:14;98341.00;;;21.83;57.07
66880;BME280;53789;51.392;10.234;2022-07-21T01:08:35;98335.78;;;21.82;58.02
66880;BME280;53789;51.392;10.234;2022-07-21T01:08:56;98340.56;;;21.81;57.17
66880;BME280;53789;51.392;10.234;2022-07-21T01:09:16;98337.34;;;21.79;57.23
66880;BME280;53789;51.392;10.234;2022-07-21T01:09:37;98341.31;;;21.78;57.27
66880;BME280;53789;51.392;10.234;2022-07-21T01:09:57;98348.94;;;21.77;57.27
66880;BME280;53789;51.392;10.234;2022-07-21T01:10:20;98346.13;;;21.77;57.19
66880;BME280;53789;51.392;10.234;2022-07-21T01:10:41;98346.94;;;21.78;57.22
66880;BME280;53789;51.392;10.234;2022-07-21T01:11:01;98354.53;;;21.77;57.70
66880;BME280;53789;51.392;10.234;2022-07-21T01:11:24;98365.72;;;21.77;57.51
66880;BME280;53789;51.392;10.234;2022-07-21T01:11:45;98360.88;;;21.74;57.67
66880;BME280;53789;51.392;10.234;2022-07-21T01:12:06;98366.91;;;21.76;57.46
66880;BME280;53789;51.392;10.234;2022-07-21T01:12:28;98368.91;;;21.76;56.83
66880;BME280;53789;51.392;10.234;2022-07-21T01:12:49;98366.47;;;21.74;57.57
66880;BME280;53789;51.392;10.234;2022-07-21T01:13:10;98372.09;;;21.74;57.63
66880;BME280;53789;51.392;10.234;2022-07-21T01:13:31;98362.84;;;21.74;57.86
66880;BME280;53789;51.392;10.234;2022-07-21T01:13:52;98364.06;;;21.73;57.59
66880;BME280;53789;51.392;10.234;2022-07-21T01:14:12;98363.63;;;21.71;57.59
66880;BME280;53789;51.392;10.234;2022-07-21T01:14:33;98360.81;;;21.71;58.01
66880;BME280;53789;51.392;10.234;2022-07-21T01:14:54;98366.78;;;21.69;58.03
66880;BME280;53789;51.392;10.234;2022-07-21T01:15:16;98354.81;;;21.69;57.68
66880;BME280;53789;51.392;10.234;2022-07-21T01:15:36;98359.97;;;21.67;57.71
66880;BME280;53789;51.392;10.234;2022-07-21T01:15:57;98359.16;;;21.66;58.13
66880;BME280;53789;51.392;10.234;2022-07-21T01:16:17;98350.34;;;21.64;58.10
66880;BME280;53789;51.392;10.234;2022-07-21T01:16:40;98361.53;;;21.64;58.06
66880;BME280;53789;51.392;10.234;2022-07-21T01:17:02;98359.91;;;21.63;58.13
66880;BME280;53789;51.392;10.234;2022-07-21T01:17:23;98355.13;;;21.63;58.34
66880;BME280;53789;51.392;10.234;2022-07-21T01:17:44;98357.13;;;21.63;57.93
66880;BME280;53789;51.392;10.234;2022-07-21T01:18:05;98357.50;;;21.61;58.15
66880;BME280;53789;51.392;10.234;2022-07-21T01:18:26;98354.69;;;21.61;58.38
66880;BME280;53789;51.392;10.234;2022-07-21T01:18:47;98360.28;;;21.61;58.28
66880;BME280;53789;51.392;10.234;2022-07-21T01:19:07;98356.25;;;21.59;58.04
66880;BME280;53789;51.392;10.234;2022-07-21T01:19:28;98349.06;;;21.58;58.50
66880;BME280;53789;51.392;10.234;2022-07-21T01:19:49;98348.25;;;21.57;58.44
66880;BME280;53789;51.392;10.234;2022-07-21T01:20:18;98346.66;;;21.56;58.62
66880;BME280;53789;51.392;10.234;2022-07-21T01:20:41;98343.41;;;21.54;58.17
66880;BME280;53789;51.392;10.234;2022-07-21T01:21:41;98341.81;;;21.53;59.15
66880;BME280;53789;51.392;10.234;2022-07-21T01:22:03;98342.59;;;21.54;59.26
66880;BME280;53789;51.392;10.234;2022-07-21T01:22:23;98343.41;;;21.54;58.43
66880;BME280;53789;51.392;10.234;2022-07-21T01:22:47;98341.44;;;21.55;58.25
66880;BME280;53789;51.392;10.234;2022-07-21T01:23:08;98342.22;;;21.55;58.67
66880;BME280;53789;51.392;10.234;2022-07-21T01:23:29;98341.44;;;21.55;58.43
66880;BME280;53789;51.392;10.234;2022-07-21T01:23:49;98348.25;;;21.57;58.62
66880;BME280;53789;51.392;10.234;2022-07-21T01:24:10;98347.81;;;21.55;58.89
66880;BME280;53789;51.392;10.234;2022-07-21T01:24:31;98346.66;;;21.56;58.56
66880;BME280;53789;51.392;10.234;2022-07-21T01:24:51;98345.81;;;21.56;58.44
66880;BME280;53789;51.392;10.234;2022-07-21T01:25:12;98346.66;;;21.56;57.99
66880;BME280;53789;51.392;10.234;2022-07-21T01:25:33;98357.47;;;21.58;58.55
66880;BME280;53789;51.392;10.234;2022-07-21T01:25:53;98356.25;;;21.59;58.43
66880;BME280;53789;51.392;10.234;2022-07-21T01:26:13;98353.06;;;21.60;58.81
66880;BME280;53789;51.392;10.234;2022-07-21T01:26:41;98359.13;;;21.62;58.97
66880;BME280;53789;51.392;10.234;2022-07-21T01:27:02;98352.31;;;21.63;58.26
66880;BME280;53789;51.392;10.234;2022-07-21T01:27:25;98353.94;;;21.65;59.19
66880;BME280;53789;51.392;10.234;2022-07-21T01:27:46;98353.16;;;21.64;59.63
66880;BME280;53789;51.392;10.234;2022-07-21T01:28:06;98355.94;;;21.64;59.00
66880;BME280;53789;51.392;10.234;2022-07-21T01:28:27;98348.34;;;21.65;59.33
66880;BME280;53789;51.392;10.234;2022-07-21T01:28:47;98349.16;;;21.65;59.80
66880;BME280;53789;51.392;10.234;2022-07-21T01:29:09;98350.75;;;21.66;58.98
66880;BME280;53789;51.392;10.234;2022-07-21T01:29:29;98351.59;;;21.67;57.70
66880;BME280;53789;51.392;10.234;2022-07-21T01:29:49;98351.59;;;21.67;57.69
66880;BME280;53789;51.392;10.234;2022-07-21T01:30:11;98354.81;;;21.69;58.29
66880;BME280;53789;51.392;10.234;2022-07-21T01:30:32;98343.59;;;21.69;58.60
66880;BME280;53789;51.392;10.234;2022-07-21T01:30:52;98350.81;;;21.70;58.67
66880;BME280;53789;51.392;10.234;2022-07-21T01:31:12;98356.03;;;21.71;58.23
66880;BME280;53789;51.392;10.234;2022-07-21T01:31:32;98352.88;;;21.73;58.92
66880;BME280;53789;51.392;10.234;2022-07-21T01:31:53;98352.50;;;21.74;58.51
66880;BME280;53789;51.392;10.234;2022-07-21T01:32:13;98348.47;;;21.75;58.75
66880;BME280;53789;51.392;10.234;2022-07-21T01:32:38;98345.34;;;21.77;59.48
66880;BME280;53789;51.392;10.234;2022-07-21T01:32:58;98356.16;;;21.78;59.24
66880;BME280;53789;51.392;10.234;2022-07-21T01:33:18;98356.56;;;21.80;58.45
66880;BME280;53789;51.392;10.234;2022-07-21T01:33:40;98358.19;;;21.82;58.44
66880;BME280;53789;51.392;10.234;2022-07-21T01:34:00;98364.19;;;21.84;58.65
66880;BME280;53789;51.392;10.234;2022-07-21T01:34:20;98357.44;;;21.85;59.20
66880;BME280;53789;51.392;10.234;2022-07-21T01:34:41;98359.03;;;21.86;58.92
66880;BME280;53789;51.392;10.234;2022-07-21T01:35:02;98351.06;;;21.88;59.00
66880;BME280;53789;51.392;10.234;2022-07-21T01:35:23;98359.09;;;21.89;58.85
66880;BME280;53789;51.392;10.234;2022-07-21T01:35:43;98365.47;;;21.90;58.75
66880;BME280;53789;51.392;10.234;2022-07-21T01:36:04;98365.09;;;21.91;58.74
66880;BME280;53789;51.392;10.234;2022-07-21T01:36:24;98361.91;;;21.93;59.04
66880;BME280;53789;51.392;10.234;2022-07-21T01:36:45;98365.53;;;21.93;59.05
66880;BME280;53789;51.392;10.234;2022-07-21T01:37:05;98361.53;;;21.94;58.77
66880;BME280;53789;51.392;10.234;2022-07-21T01:37:28;98363.97;;;21.96;58.59
66880;BME280;53789;51.392;10.234;2022-07-21T01:37:49;98361.97;;;21.96;58.74
66880;BME280;53789;51.392;10.234;2022-07-21T01:38:10;98362.78;;;21.97;59.07
66880;BME280;53789;51.392;10.234;2022-07-21T01:38:30;98359.19;;;21.96;58.86
66880;BME280;53789;51.392;10.234;2022-07-21T01:38:50;98366.38;;;21.97;58.99
66880;BME280;53789;51.392;10.234;2022-07-21T01:39:11;98375.16;;;21.96;58.32
66880;BME280;53789;51.392;10.234;2022-07-21T01:39:31;98370.38;;;21.96;58.65
66880;BME280;53789;51.392;10.234;2022-07-21T01:39:51;98366.38;;;21.97;58.16
66880;BME280;53789;51.392;10.234;2022-07-21T01:40:13;98375.97;;;21.96;57.80
66880;BME280;53789;51.392;10.234;2022-07-21T01:40:34;98375.97;;;21.96;57.97
66880;BME280;53789;51.392;10.234;2022-07-21T01:40:58;98379.97;;;21.95;57.80
66880;BME280;53789;51.392;10.234;2022-07-21T01:41:18;98379.97;;;21.95;57.70
66880;BME280;53789;51.392;10.234;2022-07-21T01:41:39;98370.31;;;21.93;58.32
66880;BME280;53789;51.392;10.234;2022-07-21T01:41:59;98375.53;;;21.94;57.96
66880;BME280;53789;51.392;10.234;2022-07-21T01:42:20;98373.13;;;21.93;58.01
66880;BME280;53789;51.392;10.234;2022-07-21T01:42:40;98375.91;;;21.93;58.22
66880;BME280;53789;51.392;10.234;2022-07-21T01:43:01;98371.53;;;21.92;58.29
66880;BME280;53789;51.392;10.234;2022-07-21T01:43:21;98374.31;;;21.92;58.38
66880;BME280;53789;51.392;10.234;2022-07-21T01:43:41;98369.53;;;21.92;58.67
66880;BME280;53789;51.392;10.234;2022-07-21T01:44:05;98367.91;;;21.91;58.75
66880;BME280;53789;51.392;10.234;2022-07-21T01:44:25;98363.13;;;21.92;58.90
66880;BME280;53789;51.392;10.234;2022-07-21T01:44:47;98365.09;;;21.91;58.75
66880;BME280;53789;51.392;10.234;2022-07-21T01:45:08;98362.31;;;21.91;58.50
66880;BME280;53789;51.392;10.234;2022-07-21T01:45:28;98357.16;;;21.93;58.39
66880;BME280;53789;51.392;10.234;2022-07-21T01:45:49;98356.31;;;21.93;59.12
66880;BME280;53789;51.392;10.234;2022-07-21T01:46:13;98352.34;;;21.94;59.10
66880;BME280;53789;51.392;10.234;2022-07-21T01:46:39;98357.94;;;21.94;58.49
66880;BME280;53789;51.392;10.234;2022-07-21T01:47:00;98351.16;;;21.95;58.80
66880;BME280;53789;51.392;10.234;2022-07-21T01:47:20;98359.94;;;21.93;58.75
66880;BME280;53789;51.392;10.234;2022-07-21T01:47:40;98359.97;;;21.97;58.19
66880;BME280;53789;51.392;10.234;2022-07-21T01:48:01;98356.38;;;21.96;58.25
66880;BME280;53789;51.392;10.234;2022-07-21T01:48:21;98360.78;;;21.97;58.17
66880;BME280;53789;51.392;10.234;2022-07-21T01:48:43;98357.19;;;21.97;58.43
66880;BME280;53789;51.392;10.234;2022-07-21T01:49:05;98356.38;;;21.96;58.18
66880;BME280;53789;51.392;10.234;2022-07-21T01:49:26;98351.56;;;21.97;58.47
66880;BME280;53789;51.392;10.234;2022-07-21T01:49:46;98359.19;;;21.96;58.24
66880;BME280;53789;51.392;10.234;2022-07-21T01:50:07;98352.75;;;21.96;58.25
66880;BME280;53789;51.392;10.234;2022-07-21T01:50:27;98353.59;;;21.96;57.74
66880;BME280;53789;51.392;10.234;2022-07-21T01:50:48;98347.16;;;21.96;58.02